createdAt,value
2018-07-27T00:01:40.418Z,48.30
2018-07-27T00:05:05.084Z,48.30
2018-07-27T00:08:29.739Z,48.50
2018-07-27T00:11:54.257Z,48.10
2018-07-27T00:15:18.850Z,48.60
2018-07-27T00:18:43.386Z,48.40
2018-07-27T00:22:08.045Z,49.30
2018-07-27T00:25:32.603Z,49.50
2018-07-27T00:28:57.129Z,50.20
2018-07-27T00:32:21.570Z,50.70
2018-07-27T00:35:46.130Z,51.50
2018-07-27T00:39:11.190Z,51.80
2018-07-27T00:42:35.674Z,52.20
2018-07-27T00:46:09.346Z,52.60
2018-07-27T00:49:36.924Z,52.40
2018-07-27T00:53:01.556Z,52.90
2018-07-27T00:56:26.098Z,53.60
2018-07-27T00:59:50.512Z,54.40
2018-07-27T01:03:14.923Z,55.20
2018-07-27T01:06:39.402Z,55.50
2018-07-27T01:10:03.909Z,55.10
2018-07-27T01:13:28.427Z,55.50
2018-07-27T01:16:52.884Z,55.10
2018-07-27T01:20:17.348Z,54.80
2018-07-27T01:23:41.774Z,54.90
2018-07-27T01:27:06.293Z,54.60
2018-07-27T01:30:30.692Z,54.60
2018-07-27T01:33:55.226Z,55.00
2018-07-27T01:37:19.625Z,55.70
2018-07-27T01:40:44.037Z,55.50
2018-07-27T01:47:32.567Z,54.90
2018-07-27T01:50:57.421Z,54.40
2018-07-27T01:54:21.778Z,54.60
2018-07-27T01:57:46.185Z,54.90
2018-07-27T02:01:10.611Z,55.40
2018-07-27T02:04:35.033Z,55.10
2018-07-27T02:07:59.455Z,54.80
2018-07-27T02:11:23.883Z,55.10
2018-07-27T02:14:48.279Z,55.20
2018-07-27T02:18:12.729Z,55.80
2018-07-27T02:21:37.170Z,55.60
2018-07-27T02:25:01.565Z,54.70
2018-07-27T02:28:26.011Z,54.30
2018-07-27T02:31:50.567Z,54.30
2018-07-27T02:35:15.103Z,54.70
2018-07-27T02:38:39.693Z,54.40
2018-07-27T02:42:04.264Z,55.40
2018-07-27T02:45:28.774Z,55.90
2018-07-27T02:48:53.551Z,57.30
2018-07-27T02:55:42.265Z,59.40
2018-07-27T02:59:06.841Z,59.70
2018-07-27T03:02:31.379Z,60.00
2018-07-27T03:05:56.268Z,60.20
2018-07-27T03:09:20.765Z,60.30
2018-07-27T03:12:45.309Z,60.60
2018-07-27T03:16:09.833Z,61.80
2018-07-27T03:19:34.397Z,62.60
2018-07-27T03:22:58.949Z,63.80
2018-07-27T03:26:23.543Z,63.60
2018-07-27T03:29:48.035Z,63.70
2018-07-27T03:33:12.646Z,63.70
2018-07-27T03:36:37.208Z,64.00
2018-07-27T03:40:01.775Z,63.30
2018-07-27T03:43:26.248Z,62.00
2018-07-27T03:46:50.757Z,60.80
2018-07-27T03:50:15.274Z,59.60
2018-07-27T03:53:39.762Z,60.70
2018-07-27T03:57:04.339Z,60.50
2018-07-27T04:00:28.902Z,60.50
2018-07-27T04:03:53.834Z,61.30
2018-07-27T04:07:24.677Z,61.80
2018-07-27T04:10:49.115Z,62.30
2018-07-27T04:14:13.565Z,62.40
2018-07-27T04:17:38.024Z,63.00
2018-07-27T04:21:02.463Z,63.30
2018-07-27T04:24:26.903Z,63.30
2018-07-27T04:27:51.442Z,62.20
2018-07-27T04:31:15.965Z,60.80
2018-07-27T04:34:40.614Z,60.10
2018-07-27T04:38:05.197Z,60.30
2018-07-27T04:41:29.742Z,59.70
2018-07-27T04:44:54.253Z,59.80
2018-07-27T04:48:18.699Z,60.20
2018-07-27T04:51:43.141Z,59.90
2018-07-27T04:55:07.695Z,60.10
2018-07-27T04:58:32.118Z,60.60
2018-07-27T05:01:56.530Z,60.00
2018-07-27T05:05:21.072Z,60.70
2018-07-27T05:08:50.687Z,61.40
2018-07-27T05:12:15.161Z,62.00
2018-07-27T05:15:39.624Z,61.80
2018-07-27T05:19:04.017Z,62.30
2018-07-27T05:22:28.424Z,62.90
2018-07-27T05:25:52.850Z,62.90
2018-07-27T05:29:17.262Z,63.20
2018-07-27T05:32:41.738Z,63.20
2018-07-27T05:36:06.407Z,63.10
2018-07-27T05:39:30.935Z,62.70
2018-07-27T05:42:55.409Z,63.40
2018-07-27T05:46:19.877Z,63.40
2018-07-27T05:49:44.333Z,62.70
2018-07-27T05:53:08.865Z,61.80
2018-07-27T05:56:33.359Z,60.40
2018-07-27T05:59:57.884Z,59.40
2018-07-27T06:03:22.467Z,58.40
2018-07-27T06:06:47.005Z,56.80
2018-07-27T06:10:11.608Z,56.20
2018-07-27T06:13:36.104Z,55.90
2018-07-27T06:17:00.619Z,55.10
2018-07-27T06:20:25.100Z,52.70
2018-07-27T06:23:49.694Z,51.70
2018-07-27T06:27:14.125Z,50.30
2018-07-27T06:30:38.899Z,50.30
2018-07-27T06:34:03.349Z,49.80
2018-07-27T06:37:27.841Z,48.90
2018-07-27T06:40:52.399Z,48.10
2018-07-27T06:44:16.874Z,47.10
2018-07-27T06:47:41.341Z,46.00
2018-07-27T06:51:05.802Z,46.00
2018-07-27T06:54:30.458Z,45.60
2018-07-27T06:57:55.198Z,45.10
2018-07-27T07:01:19.682Z,44.70
2018-07-27T07:04:44.167Z,44.60
2018-07-27T07:08:08.690Z,44.10
2018-07-27T07:11:33.193Z,44.20
2018-07-27T07:14:57.687Z,44.10
2018-07-27T07:18:22.130Z,44.90
2018-07-27T07:21:46.575Z,43.90
2018-07-27T07:25:11.051Z,43.60
2018-07-27T07:28:35.414Z,43.60
2018-07-27T07:31:59.851Z,43.70
2018-07-27T07:35:24.331Z,43.10
2018-07-27T07:38:48.817Z,43.00
2018-07-27T07:42:13.287Z,42.70
2018-07-27T07:45:37.742Z,43.20
2018-07-27T07:49:04.124Z,43.10
2018-07-27T07:52:28.623Z,43.00
2018-07-27T07:55:53.070Z,42.30
2018-07-27T07:59:17.501Z,42.60
2018-07-27T08:02:42.003Z,41.20
2018-07-27T08:06:06.873Z,40.90
2018-07-27T08:09:31.310Z,41.70
2018-07-27T08:12:55.771Z,40.60
2018-07-27T08:16:20.231Z,40.90
2018-07-27T08:19:44.644Z,39.60
2018-07-27T08:26:39.317Z,38.80
2018-07-27T08:30:03.782Z,38.20
2018-07-27T08:33:28.207Z,37.60
2018-07-27T08:36:52.945Z,38.10
2018-07-27T08:40:17.352Z,35.80
2018-07-27T08:43:41.745Z,37.30
2018-07-27T08:47:06.278Z,36.60
2018-07-27T08:50:30.727Z,36.80
2018-07-27T08:53:55.638Z,35.10
2018-07-27T08:57:20.063Z,37.10
2018-07-27T09:00:54.715Z,36.30
2018-07-27T09:04:19.171Z,35.20
2018-07-27T09:07:43.578Z,33.40
2018-07-27T09:11:08.023Z,34.30
2018-07-27T09:14:32.487Z,32.90
2018-07-27T09:17:56.921Z,35.40
2018-07-27T09:21:21.436Z,33.20
2018-07-27T09:24:46.003Z,32.80
2018-07-27T09:28:10.484Z,34.50
2018-07-27T09:31:34.966Z,32.30
2018-07-27T09:34:59.359Z,32.80
2018-07-27T09:38:23.773Z,31.60
2018-07-27T09:41:48.293Z,29.50
2018-07-27T09:45:12.839Z,29.80
2018-07-27T09:48:37.344Z,29.00
2018-07-27T09:52:01.788Z,29.00
2018-07-27T09:55:26.385Z,30.40
2018-07-27T09:58:50.856Z,30.00
2018-07-27T10:02:15.294Z,29.60
2018-07-27T10:05:39.779Z,30.10
2018-07-27T10:09:04.958Z,28.90
2018-07-27T10:12:29.562Z,29.40
2018-07-27T10:15:54.011Z,27.80
2018-07-27T10:19:18.475Z,27.70
2018-07-27T10:22:42.977Z,26.90
2018-07-27T10:26:07.422Z,26.10
2018-07-27T10:29:31.909Z,25.60
2018-07-27T10:32:56.364Z,23.50
2018-07-27T10:36:20.807Z,23.60
2018-07-27T10:39:45.212Z,23.20
2018-07-27T10:43:09.675Z,21.90
2018-07-27T10:46:34.090Z,22.30
2018-07-27T10:49:58.543Z,20.60
2018-07-27T10:53:22.978Z,20.90
2018-07-27T10:56:47.392Z,23.10
2018-07-27T11:00:15.675Z,23.10
2018-07-27T11:03:40.186Z,22.10
2018-07-27T11:07:04.663Z,21.10
2018-07-27T11:10:29.128Z,20.70
2018-07-27T11:13:53.522Z,21.30
2018-07-27T11:17:18.024Z,20.90
2018-07-27T11:20:42.492Z,20.90
2018-07-27T11:24:07.006Z,20.90
2018-07-27T11:27:31.570Z,19.80
2018-07-27T11:30:56.062Z,19.60
2018-07-27T11:34:20.472Z,18.40
2018-07-27T11:37:44.969Z,19.60
2018-07-27T11:41:09.440Z,18.90
2018-07-27T11:44:33.868Z,19.10
2018-07-27T11:47:58.317Z,19.10
2018-07-27T11:51:23.359Z,18.20
2018-07-27T11:54:47.875Z,18.00
2018-07-27T11:58:12.539Z,18.40
2018-07-27T12:01:37.129Z,18.00
2018-07-27T12:05:01.666Z,18.30
2018-07-27T12:08:26.163Z,17.10
2018-07-27T12:11:50.659Z,17.00
2018-07-27T12:15:15.289Z,18.30
2018-07-27T12:18:39.678Z,17.90
2018-07-27T12:22:04.151Z,18.30
2018-07-27T12:25:28.669Z,16.90
2018-07-27T12:28:53.197Z,17.70
2018-07-27T12:32:17.686Z,17.00
2018-07-27T12:35:42.207Z,15.80
2018-07-27T12:39:10.666Z,16.90
2018-07-27T12:42:35.209Z,15.60
2018-07-27T12:45:59.731Z,17.20
2018-07-27T12:49:24.301Z,16.80
2018-07-27T12:52:48.869Z,16.50
2018-07-27T12:56:13.447Z,17.20
2018-07-27T12:59:37.998Z,16.20
2018-07-27T13:03:02.592Z,15.20
2018-07-27T13:06:27.164Z,16.10
2018-07-27T13:09:55.740Z,15.90
2018-07-27T13:13:20.222Z,15.50
2018-07-27T13:16:44.620Z,15.30
2018-07-27T13:20:09.128Z,15.90
2018-07-27T13:23:33.551Z,15.30
2018-07-27T13:26:57.989Z,14.40
2018-07-27T13:30:22.482Z,16.60
2018-07-27T13:34:06.290Z,15.60
2018-07-27T13:37:32.175Z,15.10
2018-07-27T13:40:56.861Z,15.70
2018-07-27T13:44:21.267Z,15.80
2018-07-27T13:47:45.700Z,16.50
2018-07-27T13:51:10.173Z,14.60
2018-07-27T13:54:35.360Z,14.70
2018-07-27T13:57:59.827Z,14.60
2018-07-27T14:01:24.256Z,14.40
2018-07-27T14:04:48.667Z,14.40
2018-07-27T14:08:13.136Z,14.80
2018-07-27T14:11:37.591Z,15.70
2018-07-27T14:15:02.093Z,15.20
2018-07-27T14:18:26.577Z,13.90
2018-07-27T14:21:51.093Z,13.50
2018-07-27T14:25:15.571Z,13.20
2018-07-27T14:28:40.096Z,12.90
2018-07-27T14:32:04.621Z,13.20
2018-07-27T14:35:29.103Z,13.70
2018-07-27T14:38:53.721Z,13.20
2018-07-27T14:45:42.487Z,13.60
2018-07-27T14:49:12.808Z,12.60
2018-07-27T14:52:37.440Z,13.20
2018-07-27T14:56:02.222Z,13.10
2018-07-27T14:59:31.716Z,13.20
2018-07-27T15:02:56.153Z,11.90
2018-07-27T15:06:20.628Z,12.20
2018-07-27T15:09:45.076Z,12.10
2018-07-27T15:13:09.558Z,12.80
2018-07-27T15:16:34.288Z,12.70
2018-07-27T15:19:58.833Z,11.80
2018-07-27T15:23:23.257Z,12.00
2018-07-27T15:26:47.716Z,12.60
2018-07-27T15:30:12.566Z,11.70
2018-07-27T15:33:37.240Z,11.00
2018-07-27T15:37:01.840Z,11.10
2018-07-27T15:40:26.248Z,11.80
2018-07-27T15:43:50.796Z,11.70
2018-07-27T15:50:39.504Z,11.00
2018-07-27T15:54:03.918Z,11.40
2018-07-27T15:57:28.372Z,11.90
2018-07-27T16:00:52.834Z,11.90
2018-07-27T16:04:17.265Z,11.90
2018-07-27T16:07:41.714Z,11.40
2018-07-27T16:11:06.353Z,11.60
2018-07-27T16:14:30.789Z,11.60
2018-07-27T16:17:55.558Z,12.50
2018-07-27T16:21:20.038Z,13.40
2018-07-27T16:24:44.490Z,14.20
2018-07-27T16:28:09.132Z,13.80
2018-07-27T16:31:33.612Z,15.30
2018-07-27T16:34:58.144Z,17.40
2018-07-27T16:38:22.769Z,16.80
2018-07-27T16:41:47.376Z,15.50
2018-07-27T16:45:11.845Z,15.40
2018-07-27T16:48:36.446Z,15.60
2018-07-27T16:52:01.080Z,14.30
2018-07-27T16:55:25.622Z,14.50
2018-07-27T16:58:50.153Z,15.10
2018-07-27T17:02:14.633Z,14.90
2018-07-27T17:05:39.253Z,16.80
2018-07-27T17:09:05.356Z,16.20
2018-07-27T17:12:29.890Z,17.70
2018-07-27T17:15:54.376Z,19.70
2018-07-27T17:19:18.880Z,19.60
2018-07-27T17:22:43.373Z,19.60
2018-07-27T17:26:07.925Z,20.00
2018-07-27T17:29:32.462Z,22.60
2018-07-27T17:32:56.862Z,21.70
2018-07-27T17:36:21.347Z,23.00
2018-07-27T17:39:45.760Z,23.20
2018-07-27T17:43:10.263Z,22.30
2018-07-27T17:46:34.666Z,23.30
2018-07-27T17:49:59.091Z,23.30
2018-07-27T17:53:23.576Z,23.40
2018-07-27T17:56:48.249Z,23.90
2018-07-27T18:00:12.813Z,23.70
2018-07-27T18:03:37.266Z,23.80
2018-07-27T18:07:01.849Z,24.10
2018-07-27T18:10:26.277Z,25.10
2018-07-27T18:13:50.847Z,24.30
2018-07-27T18:17:15.367Z,24.60
2018-07-27T18:20:40.058Z,25.50
2018-07-27T18:24:04.495Z,25.40
2018-07-27T18:27:29.062Z,24.90
2018-07-27T18:30:53.621Z,25.90
2018-07-27T18:34:24.742Z,26.80
2018-07-27T18:37:49.289Z,28.50
2018-07-27T18:41:13.813Z,28.20
2018-07-27T18:44:38.353Z,29.40
2018-07-27T18:48:02.967Z,30.00
2018-07-27T18:51:27.541Z,28.90
2018-07-27T18:54:52.095Z,30.50
2018-07-27T18:58:16.648Z,32.20
2018-07-27T19:01:41.190Z,31.80
2018-07-27T19:05:06.145Z,31.70
2018-07-27T19:08:30.656Z,33.70
2018-07-27T19:11:55.325Z,34.40
2018-07-27T19:15:19.910Z,35.20
2018-07-27T19:18:44.447Z,34.70
2018-07-27T19:22:09.203Z,37.70
2018-07-27T19:25:33.714Z,36.40
2018-07-27T19:28:58.243Z,37.10
2018-07-27T19:32:23.059Z,35.20
2018-07-27T19:35:47.595Z,37.30
2018-07-27T19:39:12.965Z,37.70
2018-07-27T19:42:37.600Z,39.00
2018-07-27T19:46:02.274Z,38.70
2018-07-27T19:49:26.811Z,40.40
2018-07-27T19:52:51.463Z,41.60
2018-07-27T19:56:15.990Z,40.80
2018-07-27T19:59:40.747Z,41.60
2018-07-27T20:03:05.546Z,41.60
2018-07-27T20:06:30.035Z,41.30
2018-07-27T20:09:54.881Z,41.10
2018-07-27T20:13:19.345Z,40.20
2018-07-27T20:16:44.730Z,41.70
2018-07-27T20:20:09.863Z,41.50
2018-07-27T20:23:34.298Z,41.10
2018-07-27T20:26:58.783Z,40.90
2018-07-27T20:30:23.224Z,41.70
2018-07-27T20:33:47.697Z,41.10
2018-07-27T20:37:12.144Z,42.30
2018-07-27T20:40:36.633Z,42.00
2018-07-27T20:44:01.132Z,42.10
2018-07-27T20:47:25.535Z,41.70
2018-07-27T20:50:50.082Z,41.60
2018-07-27T20:54:14.522Z,41.40
2018-07-27T20:57:39.310Z,42.20
2018-07-27T21:01:03.829Z,42.20
2018-07-27T21:04:28.410Z,41.70
2018-07-27T21:07:52.884Z,41.20
2018-07-27T21:11:17.332Z,41.30
2018-07-27T21:14:41.873Z,41.30
2018-07-27T21:18:06.381Z,40.60
2018-07-27T21:21:31.191Z,41.30
2018-07-27T21:24:55.701Z,40.70
2018-07-27T21:31:44.507Z,41.40
2018-07-27T21:35:09.083Z,42.20
2018-07-27T21:38:33.601Z,41.20
2018-07-27T21:41:58.084Z,42.70
2018-07-27T21:45:22.632Z,42.10
2018-07-27T21:48:47.150Z,41.40
2018-07-27T21:52:11.778Z,39.80
2018-07-27T21:55:36.319Z,41.10
2018-07-27T21:59:00.813Z,41.80
2018-07-27T22:02:25.572Z,42.00
2018-07-27T22:05:50.062Z,42.80
2018-07-27T22:09:14.606Z,42.20
2018-07-27T22:12:39.194Z,42.30
2018-07-27T22:16:04.068Z,41.60
2018-07-27T22:19:28.550Z,39.30
2018-07-27T22:22:54.128Z,39.00
2018-07-27T22:26:20.156Z,40.00
2018-07-27T22:29:45.430Z,39.90
2018-07-27T22:33:10.667Z,39.30
2018-07-27T22:36:35.726Z,37.50
2018-07-27T22:40:01.298Z,38.80
2018-07-27T22:43:25.863Z,38.10
2018-07-27T22:46:50.546Z,37.70
2018-07-27T22:50:15.221Z,37.50
2018-07-27T22:53:40.020Z,37.40
2018-07-27T22:57:04.687Z,37.50
2018-07-27T23:00:29.346Z,38.40
2018-07-27T23:03:53.956Z,38.10
2018-07-27T23:07:18.515Z,37.70
2018-07-27T23:10:43.028Z,38.40
2018-07-27T23:14:07.726Z,37.90
2018-07-27T23:17:32.294Z,37.90
2018-07-27T23:20:56.991Z,37.80
2018-07-27T23:24:21.596Z,38.80
2018-07-27T23:27:46.176Z,38.60
2018-07-27T23:31:10.857Z,38.70
2018-07-27T23:34:35.370Z,38.30
2018-07-27T23:37:59.986Z,38.30
2018-07-27T23:41:24.523Z,38.30
2018-07-27T23:44:49.128Z,38.50
2018-07-27T23:48:13.621Z,38.80
2018-07-27T23:51:38.207Z,39.00
2018-07-27T23:55:02.795Z,38.80
2018-07-27T23:58:27.947Z,39.60
